createdAt,value
2018-05-26T00:01:15.700Z,11.80
2018-05-26T00:03:43.200Z,11.80
2018-05-26T00:06:10.715Z,11.80
2018-05-26T00:08:38.286Z,11.70
2018-05-26T00:11:05.768Z,11.70
2018-05-26T00:13:33.269Z,11.70
2018-05-26T00:16:00.754Z,11.70
2018-05-26T00:18:28.286Z,11.60
2018-05-26T00:20:55.860Z,11.60
2018-05-26T00:23:23.374Z,11.60
2018-05-26T00:25:50.867Z,11.50
2018-05-26T00:28:18.389Z,11.50
2018-05-26T00:30:45.880Z,11.40
2018-05-26T00:33:13.394Z,11.40
2018-05-26T00:35:41.657Z,11.40
2018-05-26T00:38:09.942Z,11.40
2018-05-26T00:40:38.173Z,11.30
2018-05-26T00:43:05.656Z,11.30
2018-05-26T00:45:33.183Z,11.30
2018-05-26T00:48:00.641Z,11.30
2018-05-26T00:50:28.135Z,11.30
2018-05-26T00:52:56.399Z,11.30
2018-05-26T00:55:23.898Z,11.20
2018-05-26T00:57:52.130Z,11.30
2018-05-26T01:00:19.618Z,11.20
2018-05-26T01:02:47.862Z,11.10
2018-05-26T01:05:15.365Z,11.10
2018-05-26T01:07:42.853Z,11.10
2018-05-26T01:10:10.330Z,11.10
2018-05-26T01:12:37.838Z,11.20
2018-05-26T01:15:05.356Z,11.20
2018-05-26T01:17:32.837Z,11.10
2018-05-26T01:20:01.146Z,11.10
2018-05-26T01:22:28.583Z,11.10
2018-05-26T01:24:56.866Z,11.00
2018-05-26T01:27:24.362Z,11.00
2018-05-26T01:29:51.842Z,11.00
2018-05-26T01:32:19.357Z,10.90
2018-05-26T01:34:46.843Z,10.90
2018-05-26T01:37:14.356Z,10.90
2018-05-26T01:39:42.618Z,10.80
2018-05-26T01:42:10.099Z,10.80
2018-05-26T01:44:38.361Z,10.70
2018-05-26T01:47:06.614Z,10.70
2018-05-26T01:49:35.640Z,10.60
2018-05-26T01:52:03.877Z,10.70
2018-05-26T01:54:31.426Z,10.70
2018-05-26T01:56:59.335Z,10.70
2018-05-26T01:59:27.588Z,10.60
2018-05-26T02:01:55.101Z,10.60
2018-05-26T02:04:22.597Z,10.50
2018-05-26T02:06:50.089Z,10.50
2018-05-26T02:09:18.349Z,10.40
2018-05-26T02:11:45.837Z,10.40
2018-05-26T02:14:14.083Z,10.40
2018-05-26T02:16:41.601Z,10.40
2018-05-26T02:19:09.105Z,10.40
2018-05-26T02:21:37.331Z,10.40
2018-05-26T02:24:04.846Z,10.40
2018-05-26T02:26:32.314Z,10.40
2018-05-26T02:29:00.562Z,10.30
2018-05-26T02:31:28.054Z,10.30
2018-05-26T02:33:56.314Z,10.20
2018-05-26T02:36:23.790Z,10.20
2018-05-26T02:38:52.052Z,10.20
2018-05-26T02:41:20.298Z,10.10
2018-05-26T02:43:47.825Z,10.10
2018-05-26T02:46:15.316Z,10.10
2018-05-26T02:48:42.803Z,10.00
2018-05-26T02:51:10.284Z,10.00
2018-05-26T02:53:38.568Z,10.00
2018-05-26T02:56:06.810Z,10.00
2018-05-26T02:58:34.333Z,9.90
2018-05-26T03:01:01.807Z,10.00
2018-05-26T03:03:29.282Z,9.90
2018-05-26T03:06:02.580Z,9.90
2018-05-26T03:08:35.876Z,9.80
2018-05-26T03:11:09.183Z,9.80
2018-05-26T03:13:43.269Z,9.70
2018-05-26T03:16:16.608Z,9.70
2018-05-26T03:18:44.191Z,9.70
2018-05-26T03:21:11.696Z,9.70
2018-05-26T03:23:39.162Z,9.70
2018-05-26T03:26:06.662Z,9.70
2018-05-26T03:28:34.133Z,9.60
2018-05-26T03:31:01.625Z,9.60
2018-05-26T03:33:29.101Z,9.60
2018-05-26T03:35:56.605Z,9.60
2018-05-26T03:38:24.073Z,9.70
2018-05-26T03:40:51.566Z,9.60
2018-05-26T03:43:19.057Z,9.60
2018-05-26T03:45:46.537Z,9.60
2018-05-26T03:48:14.030Z,9.60
2018-05-26T03:50:41.490Z,9.60
2018-05-26T03:53:08.978Z,9.60
2018-05-26T03:55:49.385Z,9.60
2018-05-26T03:58:28.845Z,9.60
2018-05-26T04:00:56.317Z,9.60
2018-05-26T04:03:23.819Z,9.60
2018-05-26T04:05:51.341Z,9.60
2018-05-26T04:08:18.873Z,9.60
2018-05-26T04:10:46.369Z,9.70
2018-05-26T04:13:14.637Z,9.70
2018-05-26T04:15:43.001Z,9.70
2018-05-26T04:18:10.477Z,9.80
2018-05-26T04:20:38.729Z,9.80
2018-05-26T04:23:06.188Z,9.80
2018-05-26T04:25:33.689Z,9.80
2018-05-26T04:28:01.153Z,9.90
2018-05-26T04:30:28.658Z,9.90
2018-05-26T04:32:56.125Z,10.00
2018-05-26T04:35:23.691Z,10.10
2018-05-26T04:37:51.151Z,10.10
2018-05-26T04:40:18.630Z,10.20
2018-05-26T04:42:46.908Z,10.30
2018-05-26T04:45:15.153Z,10.30
2018-05-26T04:47:42.679Z,10.30
2018-05-26T04:50:10.136Z,10.40
2018-05-26T04:52:37.645Z,10.40
2018-05-26T04:55:05.097Z,10.50
2018-05-26T04:57:32.618Z,10.60
2018-05-26T05:00:00.081Z,10.70
2018-05-26T05:02:27.576Z,10.70
2018-05-26T05:04:55.065Z,10.80
2018-05-26T05:07:23.347Z,10.90
2018-05-26T05:09:51.601Z,11.00
2018-05-26T05:12:19.105Z,11.00
2018-05-26T05:14:46.589Z,11.10
2018-05-26T05:17:14.085Z,11.20
2018-05-26T05:19:42.377Z,11.40
2018-05-26T05:22:09.852Z,11.40
2018-05-26T05:24:37.370Z,11.50
2018-05-26T05:27:04.874Z,11.60
2018-05-26T05:29:32.377Z,11.70
2018-05-26T05:31:59.845Z,11.80
2018-05-26T05:34:28.123Z,12.10
2018-05-26T05:36:55.597Z,12.00
2018-05-26T05:39:23.891Z,12.40
2018-05-26T05:41:51.360Z,12.40
2018-05-26T05:44:18.877Z,12.50
2018-05-26T05:46:47.121Z,12.80
2018-05-26T05:49:14.606Z,12.80
2018-05-26T05:51:42.113Z,13.00
2018-05-26T05:54:09.628Z,13.20
2018-05-26T05:56:37.145Z,13.40
2018-05-26T05:59:04.912Z,13.60
2018-05-26T06:01:32.904Z,13.90
2018-05-26T06:04:00.425Z,13.90
2018-05-26T06:06:27.913Z,14.00
2018-05-26T06:08:55.393Z,14.30
2018-05-26T06:11:23.654Z,15.00
2018-05-26T06:13:51.145Z,15.00
2018-05-26T06:16:19.420Z,15.40
2018-05-26T06:18:47.665Z,15.70
2018-05-26T06:21:15.161Z,15.70
2018-05-26T06:23:43.399Z,16.00
2018-05-26T06:26:10.955Z,16.00
2018-05-26T06:28:38.506Z,16.30
2018-05-26T06:31:05.964Z,16.40
2018-05-26T06:33:33.467Z,16.50
2018-05-26T06:36:01.709Z,17.00
2018-05-26T06:38:29.224Z,17.00
2018-05-26T06:40:57.468Z,17.30
2018-05-26T06:43:24.977Z,17.30
2018-05-26T06:45:52.465Z,17.50
2018-05-26T06:48:19.969Z,17.60
2018-05-26T06:50:48.259Z,18.10
2018-05-26T06:53:15.724Z,18.10
2018-05-26T06:55:43.223Z,18.30
2018-05-26T06:58:10.776Z,18.40
2018-05-26T07:00:38.249Z,18.70
2018-05-26T07:03:05.744Z,18.90
2018-05-26T07:05:34.106Z,19.40
2018-05-26T07:08:01.584Z,19.40
2018-05-26T07:10:29.105Z,19.60
2018-05-26T07:12:56.594Z,19.70
2018-05-26T07:15:24.853Z,20.00
2018-05-26T07:17:52.326Z,20.00
2018-05-26T07:20:20.574Z,20.10
2018-05-26T07:22:48.037Z,20.00
2018-05-26T07:25:15.522Z,20.10
2018-05-26T07:27:43.768Z,20.40
2018-05-26T07:30:11.250Z,20.40
2018-05-26T07:32:39.493Z,20.70
2018-05-26T07:35:07.020Z,20.60
2018-05-26T07:37:34.481Z,20.90
2018-05-26T07:40:01.978Z,21.10
2018-05-26T07:42:29.493Z,21.00
2018-05-26T07:44:56.976Z,21.10
2018-05-26T07:47:24.473Z,21.10
2018-05-26T07:49:52.701Z,20.90
2018-05-26T07:52:20.210Z,20.90
2018-05-26T07:54:48.450Z,20.90
2018-05-26T07:57:15.940Z,20.90
2018-05-26T07:59:44.197Z,20.70
2018-05-26T08:02:11.690Z,20.70
2018-05-26T08:04:39.966Z,20.80
2018-05-26T08:07:08.213Z,21.00
2018-05-26T08:09:35.717Z,21.00
2018-05-26T08:12:03.202Z,21.30
2018-05-26T08:14:30.699Z,21.50
2018-05-26T08:16:58.210Z,21.80
2018-05-26T08:19:25.673Z,22.00
2018-05-26T08:21:53.207Z,21.90
2018-05-26T08:24:21.464Z,21.70
2018-05-26T08:26:49.710Z,21.80
2018-05-26T08:29:17.245Z,21.80
2018-05-26T08:31:44.698Z,21.90
2018-05-26T08:34:12.182Z,21.80
2018-05-26T08:36:39.670Z,22.00
2018-05-26T08:39:07.175Z,22.00
2018-05-26T08:41:34.677Z,22.00
2018-05-26T08:44:02.196Z,22.20
2018-05-26T08:46:29.665Z,22.50
2018-05-26T08:48:57.158Z,22.70
2018-05-26T08:51:24.615Z,22.80
2018-05-26T08:53:52.122Z,22.90
2018-05-26T08:56:19.594Z,23.20
2018-05-26T08:58:47.081Z,23.40
2018-05-26T09:01:14.581Z,23.40
2018-05-26T09:03:42.108Z,23.60
2018-05-26T09:06:09.587Z,23.90
2018-05-26T09:08:37.825Z,23.70
2018-05-26T09:11:05.337Z,23.70
2018-05-26T09:13:32.813Z,23.80
2018-05-26T09:16:00.338Z,24.20
2018-05-26T09:18:28.607Z,24.20
2018-05-26T09:20:56.067Z,24.20
2018-05-26T09:23:24.301Z,24.80
2018-05-26T09:25:51.810Z,24.70
2018-05-26T09:28:20.037Z,24.80
2018-05-26T09:30:47.550Z,24.80
2018-05-26T09:33:15.782Z,25.00
2018-05-26T09:35:43.240Z,25.00
2018-05-26T09:38:10.745Z,25.00
2018-05-26T09:40:38.981Z,24.80
2018-05-26T09:43:06.478Z,24.80
2018-05-26T09:45:34.709Z,25.00
2018-05-26T09:48:02.200Z,25.00
2018-05-26T09:50:30.437Z,24.80
2018-05-26T09:52:57.931Z,24.80
2018-05-26T09:55:26.177Z,24.70
2018-05-26T09:57:53.677Z,24.70
2018-05-26T10:00:21.926Z,24.40
2018-05-26T10:02:49.426Z,24.40
2018-05-26T10:05:16.900Z,24.60
2018-05-26T10:07:44.426Z,24.70
2018-05-26T10:10:12.664Z,24.70
2018-05-26T10:12:40.166Z,24.70
2018-05-26T10:15:08.405Z,24.80
2018-05-26T10:17:35.912Z,24.80
2018-05-26T10:20:03.388Z,24.80
2018-05-26T10:22:30.893Z,24.80
2018-05-26T10:24:58.369Z,24.80
2018-05-26T10:27:26.630Z,25.00
2018-05-26T10:29:54.151Z,25.00
2018-05-26T10:32:21.661Z,25.10
2018-05-26T10:34:49.117Z,25.20
2018-05-26T10:37:17.352Z,25.80
2018-05-26T10:39:44.855Z,25.70
2018-05-26T10:42:13.072Z,25.40
2018-05-26T10:44:40.603Z,25.40
2018-05-26T10:47:08.852Z,25.70
2018-05-26T10:49:36.338Z,25.70
2018-05-26T10:52:04.584Z,25.70
2018-05-26T10:54:32.053Z,25.70
2018-05-26T10:56:59.578Z,25.60
2018-05-26T10:59:27.053Z,25.80
2018-05-26T11:01:54.555Z,25.70
2018-05-26T11:04:22.835Z,26.00
2018-05-26T11:06:51.097Z,26.50
2018-05-26T11:09:19.335Z,26.70
2018-05-26T11:11:46.822Z,26.70
2018-05-26T11:14:15.066Z,26.50
2018-05-26T11:16:43.391Z,26.60
2018-05-26T11:19:11.619Z,26.30
2018-05-26T11:21:39.106Z,26.20
2018-05-26T11:24:07.620Z,26.90
2018-05-26T11:26:34.858Z,26.90
2018-05-26T11:29:03.133Z,27.10
2018-05-26T11:31:31.422Z,26.60
2018-05-26T11:33:59.684Z,26.50
2018-05-26T11:36:28.021Z,26.50
2018-05-26T11:42:26.387Z,26.30
2018-05-26T11:44:53.889Z,26.10
2018-05-26T11:47:21.398Z,26.00
2018-05-26T11:49:49.678Z,26.20
2018-05-26T11:52:17.910Z,26.30
2018-05-26T11:54:45.437Z,26.30
2018-05-26T11:57:12.923Z,25.90
2018-05-26T11:59:40.416Z,25.90
2018-05-26T12:02:08.696Z,25.80
2018-05-26T12:04:36.957Z,25.80
2018-05-26T12:07:04.429Z,25.80
2018-05-26T12:09:32.717Z,25.70
2018-05-26T12:12:00.970Z,25.80
2018-05-26T12:14:28.478Z,25.70
2018-05-26T12:16:55.941Z,26.10
2018-05-26T12:19:23.477Z,26.60
2018-05-26T12:21:50.933Z,27.10
2018-05-26T12:24:18.435Z,27.20
2018-05-26T12:26:45.948Z,27.20
2018-05-26T12:29:13.465Z,27.20
2018-05-26T12:31:40.970Z,27.40
2018-05-26T12:34:08.462Z,27.00
2018-05-26T12:36:35.961Z,26.90
2018-05-26T12:39:04.235Z,28.00
2018-05-26T12:41:32.484Z,27.90
2018-05-26T12:43:59.990Z,28.00
2018-05-26T12:46:28.294Z,28.20
2018-05-26T12:48:55.765Z,28.20
2018-05-26T12:51:23.261Z,28.70
2018-05-26T12:53:50.732Z,29.00
2018-05-26T12:56:19.001Z,28.70
2018-05-26T12:58:47.277Z,28.60
2018-05-26T13:01:15.524Z,28.60
2018-05-26T13:03:43.009Z,28.50
2018-05-26T13:06:10.547Z,28.50
2018-05-26T13:08:38.033Z,28.80
2018-05-26T13:11:06.297Z,29.10
2018-05-26T13:13:33.797Z,29.00
2018-05-26T13:16:01.291Z,28.80
2018-05-26T13:18:28.818Z,29.00
2018-05-26T13:20:56.305Z,29.20
2018-05-26T13:23:23.789Z,29.20
2018-05-26T13:25:51.273Z,29.30
2018-05-26T13:28:19.537Z,28.80
2018-05-26T13:30:47.792Z,28.80
2018-05-26T13:33:15.301Z,28.70
2018-05-26T13:35:42.808Z,28.90
2018-05-26T13:38:10.287Z,29.00
2018-05-26T13:40:37.774Z,28.90
2018-05-26T13:43:05.277Z,29.20
2018-05-26T13:45:32.742Z,29.50
2018-05-26T13:48:00.278Z,29.30
2018-05-26T13:50:27.775Z,29.10
2018-05-26T13:52:55.335Z,29.00
2018-05-26T13:55:22.742Z,29.20
2018-05-26T13:57:50.242Z,28.80
2018-05-26T14:00:18.500Z,29.10
2018-05-26T14:02:45.961Z,29.10
2018-05-26T14:05:13.449Z,29.00
2018-05-26T14:07:40.956Z,29.00
2018-05-26T14:10:08.445Z,28.70
2018-05-26T14:12:35.949Z,28.80
2018-05-26T14:15:04.212Z,28.70
2018-05-26T14:17:32.445Z,28.80
2018-05-26T14:20:00.576Z,28.80
2018-05-26T14:22:28.078Z,29.10
2018-05-26T14:24:55.566Z,29.10
2018-05-26T14:27:23.067Z,29.20
2018-05-26T14:29:50.557Z,28.90
2018-05-26T14:32:18.024Z,28.70
2018-05-26T14:34:45.512Z,28.90
2018-05-26T14:37:13.765Z,28.70
2018-05-26T14:39:41.273Z,28.60
2018-05-26T14:42:08.801Z,28.60
2018-05-26T14:44:36.287Z,28.70
2018-05-26T14:47:03.746Z,28.60
2018-05-26T14:49:31.215Z,28.30
2018-05-26T14:51:58.730Z,28.20
2018-05-26T14:54:26.972Z,28.20
2018-05-26T14:56:54.451Z,28.20
2018-05-26T14:59:22.700Z,27.70
2018-05-26T15:01:50.226Z,27.70
2018-05-26T15:04:18.695Z,27.80
2018-05-26T15:06:46.958Z,27.70
2018-05-26T15:09:15.221Z,27.40
2018-05-26T15:11:42.731Z,27.40
2018-05-26T15:14:10.231Z,27.30
2018-05-26T15:16:37.727Z,27.20
2018-05-26T15:19:05.965Z,27.10
2018-05-26T15:21:33.529Z,27.00
2018-05-26T15:24:01.025Z,27.00
2018-05-26T15:26:29.345Z,26.90
2018-05-26T15:28:56.846Z,26.90
2018-05-26T15:31:25.076Z,26.90
2018-05-26T15:33:52.588Z,26.90
2018-05-26T15:36:20.857Z,26.70
2018-05-26T15:38:48.357Z,26.70
2018-05-26T15:41:15.826Z,26.60
2018-05-26T15:43:43.316Z,26.60
2018-05-26T15:46:10.795Z,26.40
2018-05-26T15:48:39.056Z,26.40
2018-05-26T15:51:06.519Z,26.40
2018-05-26T15:53:34.799Z,26.20
2018-05-26T15:56:03.793Z,25.80
2018-05-26T15:58:32.789Z,25.80
2018-05-26T16:01:01.046Z,25.60
2018-05-26T16:03:28.538Z,25.60
2018-05-26T16:05:56.850Z,25.40
2018-05-26T16:08:24.365Z,25.30
2018-05-26T16:10:51.846Z,25.20
2018-05-26T16:13:19.348Z,25.20
2018-05-26T16:15:46.854Z,25.00
2018-05-26T16:18:15.124Z,24.90
2018-05-26T16:20:43.369Z,24.90
2018-05-26T16:23:10.866Z,24.80
2018-05-26T16:25:39.089Z,24.80
2018-05-26T16:28:06.610Z,24.80
2018-05-26T16:30:34.855Z,24.60
2018-05-26T16:33:02.369Z,24.50
2018-05-26T16:35:29.925Z,24.60
2018-05-26T16:37:57.432Z,24.50
2018-05-26T16:40:26.433Z,24.30
2018-05-26T16:42:53.929Z,24.30
2018-05-26T16:45:21.448Z,24.30
2018-05-26T16:47:48.918Z,24.20
2018-05-26T16:50:17.181Z,24.10
2018-05-26T16:52:44.653Z,24.10
2018-05-26T16:55:12.924Z,24.10
2018-05-26T16:57:41.173Z,24.00
2018-05-26T17:00:08.661Z,23.90
2018-05-26T17:02:36.913Z,23.80
2018-05-26T17:05:04.416Z,23.80
2018-05-26T17:07:32.666Z,23.80
2018-05-26T17:10:00.181Z,23.70
2018-05-26T17:12:27.646Z,23.70
2018-05-26T17:14:55.141Z,23.60
2018-05-26T17:17:22.613Z,23.60
2018-05-26T17:19:50.864Z,23.40
2018-05-26T17:22:18.346Z,23.40
2018-05-26T17:24:46.608Z,23.40
2018-05-26T17:27:14.106Z,23.40
2018-05-26T17:29:42.369Z,23.30
2018-05-26T17:32:10.641Z,23.20
2018-05-26T17:34:38.916Z,23.10
2018-05-26T17:37:07.196Z,23.10
2018-05-26T17:39:35.463Z,22.90
2018-05-26T17:42:02.935Z,23.00
2018-05-26T17:44:31.192Z,22.90
2018-05-26T17:46:58.682Z,22.90
2018-05-26T17:49:26.165Z,22.80
2018-05-26T17:51:53.657Z,22.70
2018-05-26T17:54:21.174Z,22.70
2018-05-26T17:56:48.692Z,22.70
2018-05-26T17:59:16.937Z,22.50
2018-05-26T18:01:44.428Z,22.50
2018-05-26T18:04:12.690Z,22.30
2018-05-26T18:06:40.974Z,22.30
2018-05-26T18:09:08.461Z,22.30
2018-05-26T18:11:35.969Z,22.20
2018-05-26T18:14:03.462Z,22.20
2018-05-26T18:16:31.716Z,21.90
2018-05-26T18:18:59.186Z,21.90
2018-05-26T18:21:26.779Z,21.70
2018-05-26T18:23:54.264Z,21.70
2018-05-26T18:26:21.746Z,21.50
2018-05-26T18:28:49.274Z,21.40
2018-05-26T18:31:16.766Z,21.30
2018-05-26T18:33:44.249Z,21.20
2018-05-26T18:36:12.508Z,21.10
2018-05-26T18:38:39.994Z,21.00
2018-05-26T18:41:08.244Z,20.90
2018-05-26T18:43:35.750Z,20.90
2018-05-26T18:46:03.233Z,20.90
2018-05-26T18:48:30.738Z,20.70
2018-05-26T18:50:59.009Z,20.50
2018-05-26T18:53:26.537Z,20.50
2018-05-26T18:55:53.997Z,20.30
2018-05-26T18:58:21.518Z,20.10
2018-05-26T19:00:49.005Z,20.10
2018-05-26T19:03:16.493Z,19.90
2018-05-26T19:05:44.002Z,19.90
2018-05-26T19:08:11.502Z,19.70
2018-05-26T19:10:39.006Z,19.70
2018-05-26T19:13:07.233Z,19.40
2018-05-26T19:15:34.728Z,19.30
2018-05-26T19:18:02.974Z,19.10
2018-05-26T19:20:30.473Z,19.10
2018-05-26T19:22:58.709Z,19.10
2018-05-26T19:25:26.222Z,19.00
2018-05-26T19:27:53.691Z,19.00
2018-05-26T19:30:21.231Z,18.80
2018-05-26T19:32:48.701Z,18.80
2018-05-26T19:35:16.227Z,18.70
2018-05-26T19:37:44.481Z,18.50
2018-05-26T19:40:11.951Z,18.50
2018-05-26T19:42:39.475Z,18.40
2018-05-26T19:45:06.957Z,18.30
2018-05-26T19:47:34.437Z,18.20
2018-05-26T19:50:02.725Z,18.00
2018-05-26T19:52:30.199Z,18.00
2018-05-26T19:54:57.667Z,17.80
2018-05-26T19:57:25.164Z,17.90
2018-05-26T19:59:52.672Z,17.70
2018-05-26T20:02:20.194Z,17.70
2018-05-26T20:04:47.670Z,17.60
2018-05-26T20:07:15.942Z,17.30
2018-05-26T20:09:44.184Z,17.30
2018-05-26T20:12:11.675Z,17.30
2018-05-26T20:14:39.206Z,17.40
2018-05-26T20:17:06.694Z,17.30
2018-05-26T20:19:34.977Z,17.10
2018-05-26T20:22:03.229Z,17.10
2018-05-26T20:24:30.738Z,17.00
2018-05-26T20:26:58.224Z,17.00
2018-05-26T20:29:25.740Z,16.90
2018-05-26T20:31:53.989Z,16.80
2018-05-26T20:34:21.496Z,16.70
2018-05-26T20:36:49.006Z,16.70
2018-05-26T20:39:16.497Z,16.70
2018-05-26T20:41:44.014Z,16.50
2018-05-26T20:44:11.518Z,16.40
2018-05-26T20:46:39.021Z,16.30
2018-05-26T20:49:06.500Z,16.30
2018-05-26T20:51:34.041Z,16.20
2018-05-26T20:54:01.530Z,16.20
2018-05-26T20:56:29.797Z,16.10
2018-05-26T20:58:57.306Z,16.10
2018-05-26T21:01:24.822Z,15.90
2018-05-26T21:03:52.295Z,15.90
2018-05-26T21:06:20.580Z,15.80
2018-05-26T21:08:48.837Z,15.70
2018-05-26T21:11:16.345Z,15.70
2018-05-26T21:13:43.839Z,15.80
2018-05-26T21:16:11.331Z,15.70
2018-05-26T21:18:39.581Z,15.60
2018-05-26T21:21:07.901Z,15.50
2018-05-26T21:23:36.860Z,15.50
2018-05-26T21:26:05.142Z,15.40
2018-05-26T21:28:33.412Z,15.40
2018-05-26T21:31:00.924Z,15.40
2018-05-26T21:33:28.442Z,15.30
2018-05-26T21:35:56.698Z,15.10
2018-05-26T21:38:25.711Z,15.00
2018-05-26T21:40:54.024Z,15.00
2018-05-26T21:43:21.536Z,14.90
2018-05-26T21:45:48.998Z,15.00
2018-05-26T21:48:16.488Z,15.10
2018-05-26T21:50:43.952Z,15.00
2018-05-26T21:53:11.455Z,15.10
2018-05-26T21:55:38.931Z,15.00
2018-05-26T21:58:06.429Z,14.90
2018-05-26T22:00:33.946Z,14.80
2018-05-26T22:03:01.439Z,14.80
2018-05-26T22:05:28.930Z,14.70
2018-05-26T22:07:56.397Z,14.60
2018-05-26T22:10:23.921Z,14.50
2018-05-26T22:12:51.376Z,14.50
2018-05-26T22:15:18.895Z,14.60
2018-05-26T22:17:46.375Z,14.50
2018-05-26T22:20:14.639Z,14.50
2018-05-26T22:22:42.118Z,14.50
2018-05-26T22:25:09.649Z,14.40
2018-05-26T22:27:37.109Z,14.40
2018-05-26T22:30:04.614Z,14.30
2018-05-26T22:32:32.096Z,14.30
2018-05-26T22:34:59.594Z,14.40
2018-05-26T22:37:27.865Z,14.20
2018-05-26T22:39:55.365Z,14.20
2018-05-26T22:42:22.860Z,14.20
2018-05-26T22:44:50.386Z,14.20
2018-05-26T22:47:19.017Z,14.10
2018-05-26T22:49:46.492Z,14.10
2018-05-26T22:52:14.762Z,14.00
2018-05-26T22:54:43.006Z,13.90
2018-05-26T22:57:10.508Z,13.90
2018-05-26T22:59:38.756Z,13.90
2018-05-26T23:02:07.771Z,13.80
2018-05-26T23:04:36.006Z,13.80
2018-05-26T23:07:03.550Z,13.80
2018-05-26T23:09:31.761Z,13.80
2018-05-26T23:12:00.026Z,13.70
2018-05-26T23:14:27.505Z,13.70
2018-05-26T23:16:55.756Z,13.60
2018-05-26T23:19:23.243Z,13.60
2018-05-26T23:21:52.446Z,13.50
2018-05-26T23:24:20.682Z,13.50
2018-05-26T23:26:48.177Z,13.50
2018-05-26T23:29:17.188Z,13.40
2018-05-26T23:31:45.450Z,13.40
2018-05-26T23:34:13.733Z,13.40
2018-05-26T23:36:41.981Z,13.40
2018-05-26T23:39:09.497Z,13.30
2018-05-26T23:41:37.003Z,13.30
2018-05-26T23:44:04.506Z,13.40
2018-05-26T23:46:32.025Z,13.30
2018-05-26T23:48:59.528Z,13.30
2018-05-26T23:51:27.004Z,13.30
2018-05-26T23:53:54.501Z,13.30
2018-05-26T23:56:21.990Z,13.20
2018-05-26T23:58:50.254Z,13.10
